Time;durP1;ratioP1;P1;durP2;ratioP2;P2;SDS_P1;SDS_P2;PMS_P1;PMS_P2;Temp;Humidity;BMP_temperature;BMP_pressure;BME280_temperature;BME280_humidity;BME280_pressure;Samples;Min_cycle;Max_cycle;Signal;HPM_P1;HPM_P2
2021/05/26 00:00:08;;;;;;;2.15;1.38;;;12.40;1.00;;;;;;5075328;28;20435;-87
2021/05/26 00:02:38;;;;;;;3.10;1.50;;;12.30;1.00;;;;;;5071708;28;20052;-87
2021/05/26 00:05:08;;;;;;;4.60;2.00;;;12.30;1.00;;;;;;5064077;28;20133;-87
2021/05/26 00:07:34;;;;;;;2.70;1.63;;;12.30;1.00;;;;;;5073272;28;20393;-87
2021/05/26 00:10:02;;;;;;;5.63;1.83;;;12.10;1.00;;;;;;5074120;28;20374;-87
2021/05/26 00:12:27;;;;;;;5.30;1.80;;;12.10;1.00;;;;;;5074163;28;20102;-87
2021/05/26 00:14:57;;;;;;;4.93;1.75;;;12.00;1.00;;;;;;5073318;28;20032;-87
2021/05/26 00:17:24;;;;;;;4.30;2.00;;;11.90;1.00;;;;;;5072932;28;20059;-87
2021/05/26 00:19:49;;;;;;;4.85;2.20;;;11.90;1.00;;;;;;5074574;28;20023;-87
2021/05/26 00:22:15;;;;;;;4.75;2.15;;;11.80;1.00;;;;;;5072589;28;20497;-86
2021/05/26 00:24:40;;;;;;;3.47;1.90;;;11.80;1.00;;;;;;5074647;28;20114;-86
2021/05/26 00:27:06;;;;;;;6.82;2.00;;;11.80;1.00;;;;;;5072428;28;20097;-87
2021/05/26 00:29:32;;;;;;;2.35;1.75;;;11.70;1.00;;;;;;5072966;28;20028;-87
2021/05/26 00:31:58;;;;;;;3.53;1.90;;;11.70;1.00;;;;;;5066170;28;20123;-86
2021/05/26 00:34:26;;;;;;;3.40;1.80;;;11.60;1.00;;;;;;5072912;28;20466;-86
2021/05/26 00:36:52;;;;;;;3.55;1.70;;;11.50;1.00;;;;;;5070884;28;20533;-86
2021/05/26 00:39:17;;;;;;;3.35;1.77;;;11.40;1.00;;;;;;5075029;28;20539;-86
2021/05/26 00:41:43;;;;;;;3.20;1.75;;;11.40;1.00;;;;;;5071302;28;20062;-87
2021/05/26 00:44:13;;;;;;;4.13;1.70;;;11.40;1.00;;;;;;5070353;28;20378;-87
2021/05/26 00:46:43;;;;;;;2.70;1.77;;;11.40;1.00;;;;;;5072415;28;20035;-86
2021/05/26 00:49:10;;;;;;;2.38;1.60;;;11.30;1.00;;;;;;5073120;28;20504;-87
2021/05/26 00:51:36;;;;;;;3.08;1.92;;;11.40;1.00;;;;;;5073576;28;20024;-87
2021/05/26 00:54:02;;;;;;;2.60;1.40;;;11.40;1.00;;;;;;5072205;28;20610;-86
2021/05/26 00:56:28;;;;;;;3.33;2.13;;;11.40;1.00;;;;;;5073297;28;20182;-87
2021/05/26 00:58:54;;;;;;;2.25;1.50;;;11.60;1.00;;;;;;5070427;28;20528;-86
2021/05/26 01:01:20;;;;;;;6.15;1.90;;;12.20;1.00;;;;;;5073247;28;20027;-86
2021/05/26 01:03:46;;;;;;;2.08;1.80;;;11.50;1.00;;;;;;5072387;28;20158;-86
2021/05/26 01:06:12;;;;;;;3.90;1.58;;;11.50;1.00;;;;;;5071621;28;20032;-86
2021/05/26 01:08:37;;;;;;;2.85;1.67;;;11.40;1.00;;;;;;5069939;28;20028;-87
2021/05/26 01:11:04;;;;;;;3.20;1.70;;;11.40;1.00;;;;;;5072242;28;20381;-86
2021/05/26 01:13:31;;;;;;;3.80;1.70;;;11.40;1.00;;;;;;5071748;28;20074;-86
2021/05/26 01:15:56;;;;;;;3.88;2.03;;;11.40;1.00;;;;;;5070520;28;20566;-86
2021/05/26 01:18:25;;;;;;;2.30;1.60;;;11.40;1.00;;;;;;5067723;28;20111;-87
2021/05/26 01:20:53;;;;;;;4.45;1.95;;;11.30;1.00;;;;;;5071778;28;20024;-86
2021/05/26 01:23:20;;;;;;;3.13;2.10;;;11.20;1.00;;;;;;5072664;28;20039;-87
2021/05/26 01:25:52;;;;;;;3.42;1.70;;;11.20;1.00;;;;;;5071708;28;20111;-87
2021/05/26 01:28:19;;;;;;;4.07;1.70;;;11.10;1.00;;;;;;5072841;28;20481;-86
2021/05/26 01:30:45;;;;;;;3.30;1.70;;;11.10;1.00;;;;;;5071566;28;20037;-86
2021/05/26 01:33:13;;;;;;;2.50;1.83;;;10.90;1.00;;;;;;5072098;28;20401;-86
2021/05/26 01:35:44;;;;;;;5.18;1.95;;;10.90;1.00;;;;;;5071292;28;20041;-86
2021/05/26 01:38:18;;;;;;;5.10;1.80;;;10.80;1.00;;;;;;5072942;28;20032;-86
2021/05/26 01:40:44;;;;;;;3.28;1.92;;;10.80;1.00;;;;;;5071533;28;20477;-85
2021/05/26 01:43:10;;;;;;;3.17;1.80;;;10.80;1.00;;;;;;5072015;28;20066;-86
2021/05/26 01:45:36;;;;;;;2.70;1.83;;;10.80;1.00;;;;;;5072835;28;20455;-86
2021/05/26 01:48:02;;;;;;;2.88;1.77;;;10.70;1.00;;;;;;5070753;28;20055;-86
2021/05/26 01:50:28;;;;;;;5.25;1.90;;;10.90;1.00;;;;;;5071502;28;20464;-86
2021/05/26 01:53:05;;;;;;;2.75;1.67;;;10.70;1.00;;;;;;5069562;28;20120;-86
2021/05/26 01:55:34;;;;;;;3.15;2.03;;;10.80;1.00;;;;;;5072584;28;20060;-86
2021/05/26 01:58:01;;;;;;;2.92;1.77;;;10.80;1.00;;;;;;5072923;28;20034;-86
2021/05/26 02:00:27;;;;;;;5.80;1.80;;;10.90;1.00;;;;;;5072545;28;20029;-85
2021/05/26 02:02:53;;;;;;;6.57;1.70;;;10.80;1.00;;;;;;5085975;28;20040;-86
2021/05/26 02:05:20;;;;;;;1.98;1.45;;;10.70;1.00;;;;;;5070969;28;20025;-86
2021/05/26 02:07:47;;;;;;;2.47;1.80;;;10.50;1.00;;;;;;5072545;28;20436;-86
2021/05/26 02:10:15;;;;;;;2.30;1.60;;;10.70;1.00;;;;;;5072301;28;20047;-86
2021/05/26 02:12:42;;;;;;;2.78;1.73;;;10.60;1.00;;;;;;5071359;28;20025;-86
2021/05/26 02:15:11;;;;;;;3.15;1.50;;;10.70;1.00;;;;;;5065147;28;20052;-86
2021/05/26 02:17:38;;;;;;;3.08;1.58;;;10.50;1.00;;;;;;5070320;28;20174;-86
2021/05/26 02:20:05;;;;;;;2.17;1.75;;;10.50;1.00;;;;;;5072247;28;20028;-86
2021/05/26 02:22:31;;;;;;;2.20;1.80;;;10.50;1.00;;;;;;5068366;28;20035;-86
2021/05/26 02:24:57;;;;;;;2.15;1.77;;;10.30;1.00;;;;;;5070818;28;20032;-86
2021/05/26 02:27:22;;;;;;;2.95;1.92;;;10.60;1.00;;;;;;5072791;28;20043;-86
2021/05/26 02:29:48;;;;;;;2.80;1.80;;;10.20;1.00;;;;;;5072065;28;20028;-86
2021/05/26 02:32:14;;;;;;;4.32;1.90;;;10.20;1.00;;;;;;5070295;28;20053;-87
2021/05/26 02:34:39;;;;;;;2.80;1.45;;;10.10;1.00;;;;;;5070461;28;20107;-86
2021/05/26 02:37:05;;;;;;;2.63;1.60;;;10.10;1.00;;;;;;5070197;28;20040;-86
2021/05/26 02:39:31;;;;;;;3.28;1.50;;;10.50;1.00;;;;;;5072007;28;20070;-86
2021/05/26 02:41:57;;;;;;;6.35;1.60;;;10.30;1.00;;;;;;5071384;28;20032;-86
2021/05/26 02:44:23;;;;;;;4.55;1.90;;;10.10;1.00;;;;;;5070767;28;20439;-86
2021/05/26 02:46:49;;;;;;;2.85;1.95;;;10.10;1.00;;;;;;5068399;28;20032;-86
2021/05/26 02:49:15;;;;;;;3.60;2.10;;;10.10;1.00;;;;;;5071946;28;20079;-85
2021/05/26 02:51:41;;;;;;;2.97;2.33;;;10.10;1.00;;;;;;5070738;28;20400;-86
2021/05/26 02:54:08;;;;;;;4.10;2.08;;;10.30;1.00;;;;;;5072154;28;20523;-86
2021/05/26 02:56:35;;;;;;;5.00;2.10;;;10.10;1.00;;;;;;5069324;28;20037;-86
2021/05/26 02:59:03;;;;;;;3.20;2.10;;;10.10;1.00;;;;;;5071659;28;20098;-86
2021/05/26 03:01:29;;;;;;;4.22;2.50;;;10.10;1.00;;;;;;5064402;28;20401;-86
2021/05/26 03:03:54;;;;;;;2.90;2.17;;;10.10;1.00;;;;;;5068169;28;20032;-86
2021/05/26 03:06:20;;;;;;;5.97;2.13;;;10.50;1.00;;;;;;5071888;28;20054;-86
2021/05/26 03:08:46;;;;;;;3.55;1.80;;;10.50;1.00;;;;;;5071546;28;20024;-86
2021/05/26 03:11:11;;;;;;;4.32;2.15;;;10.00;1.00;;;;;;5070285;28;20039;-86
2021/05/26 03:13:37;;;;;;;3.60;1.80;;;10.10;1.00;;;;;;5070608;28;20106;-85
2021/05/26 03:16:03;;;;;;;3.33;1.95;;;10.20;1.00;;;;;;5069698;28;20040;-86
2021/05/26 03:18:29;;;;;;;6.03;1.88;;;10.10;1.00;;;;;;5070296;28;20024;-86
2021/05/26 03:20:55;;;;;;;2.83;1.70;;;10.10;1.00;;;;;;5069106;28;20104;-86
2021/05/26 03:23:21;;;;;;;3.13;2.00;;;10.10;1.00;;;;;;5064287;28;20029;-86
2021/05/26 03:25:47;;;;;;;2.63;1.60;;;10.20;1.00;;;;;;5065082;28;20032;-86
2021/05/26 03:28:17;;;;;;;1.95;1.70;;;10.00;1.00;;;;;;5072205;28;20039;-86
2021/05/26 03:30:44;;;;;;;3.78;1.80;;;10.00;1.00;;;;;;5074485;28;20100;-86
2021/05/26 03:33:12;;;;;;;5.85;1.88;;;10.10;1.00;;;;;;5069767;28;20517;-86
2021/05/26 03:35:39;;;;;;;5.25;1.98;;;10.30;1.00;;;;;;5073908;28;20059;-87
2021/05/26 03:38:05;;;;;;;2.55;1.92;;;10.40;1.00;;;;;;5072857;28;20025;-86
2021/05/26 03:40:31;;;;;;;2.35;1.95;;;9.90;1.00;;;;;;5072343;28;20103;-87
2021/05/26 03:42:57;;;;;;;4.72;2.05;;;10.00;1.00;;;;;;5074557;28;20131;-86
2021/05/26 03:45:22;;;;;;;2.75;1.58;;;9.90;1.00;;;;;;5075574;28;20078;-86
2021/05/26 03:47:48;;;;;;;4.13;1.83;;;9.90;1.00;;;;;;5073857;28;20517;-85
2021/05/26 03:50:14;;;;;;;3.60;1.90;;;10.40;1.00;;;;;;5075104;28;20063;-87
2021/05/26 03:52:45;;;;;;;2.53;1.63;;;9.90;1.00;;;;;;5075305;28;20032;-86
2021/05/26 03:55:13;;;;;;;4.72;1.70;;;10.30;1.00;;;;;;5073790;28;20135;-86
2021/05/26 03:57:39;;;;;;;4.15;1.92;;;9.70;1.00;;;;;;5073653;28;20540;-87
2021/05/26 04:00:07;;;;;;;3.67;1.90;;;9.70;1.00;;;;;;5074947;28;20032;-86
2021/05/26 04:02:33;;;;;;;3.38;1.80;;;9.70;1.00;;;;;;5072424;28;20036;-86
2021/05/26 04:04:59;;;;;;;2.60;1.75;;;9.60;1.00;;;;;;5074799;28;20035;-87
2021/05/26 04:07:24;;;;;;;3.05;1.75;;;9.70;1.00;;;;;;5074725;28;20028;-86
2021/05/26 04:09:50;;;;;;;4.00;2.33;;;10.20;1.00;;;;;;5075271;28;20494;-86
2021/05/26 04:12:15;;;;;;;2.22;1.90;;;9.80;1.00;;;;;;5075039;28;20520;-87
2021/05/26 04:14:41;;;;;;;4.22;1.90;;;9.80;1.00;;;;;;5074585;28;20028;-86
2021/05/26 04:17:07;;;;;;;3.28;2.08;;;9.80;1.00;;;;;;5061599;28;20043;-86
2021/05/26 04:19:32;;;;;;;2.80;1.77;;;9.90;1.00;;;;;;5061258;28;20374;-87
2021/05/26 04:21:58;;;;;;;3.85;1.70;;;10.10;1.00;;;;;;5073861;28;20033;-86
2021/05/26 04:24:25;;;;;;;2.50;2.00;;;9.90;1.00;;;;;;5074725;28;20024;-87
2021/05/26 04:26:50;;;;;;;4.20;2.00;;;9.90;1.00;;;;;;5070623;28;20090;-86
2021/05/26 04:29:18;;;;;;;2.70;2.00;;;10.00;1.00;;;;;;5072169;28;20029;-86
2021/05/26 04:31:43;;;;;;;3.47;2.00;;;10.00;1.00;;;;;;5072784;28;20131;-87
2021/05/26 04:34:09;;;;;;;2.28;1.83;;;9.90;1.00;;;;;;5070422;28;20116;-87
2021/05/26 04:36:35;;;;;;;3.00;1.88;;;9.80;1.00;;;;;;5072761;28;20040;-88
2021/05/26 04:39:01;;;;;;;3.90;1.85;;;10.30;1.00;;;;;;5073477;28;20029;-89
2021/05/26 04:41:26;;;;;;;4.65;2.65;;;10.20;1.00;;;;;;5072886;28;20498;-87
2021/05/26 04:43:52;;;;;;;4.28;2.00;;;10.00;1.00;;;;;;5072029;28;20073;-87
2021/05/26 04:46:17;;;;;;;2.78;1.90;;;9.90;1.00;;;;;;5073213;28;20032;-86
2021/05/26 04:48:43;;;;;;;4.30;1.88;;;10.00;1.00;;;;;;5070691;28;20029;-87
2021/05/26 04:51:08;;;;;;;2.53;1.90;;;9.90;1.00;;;;;;5073974;28;20031;-86
2021/05/26 04:53:34;;;;;;;3.30;1.95;;;10.30;1.00;;;;;;5072693;28;20028;-87
2021/05/26 04:56:00;;;;;;;2.72;2.00;;;10.10;1.00;;;;;;5071811;28;20032;-88
2021/05/26 04:58:25;;;;;;;4.32;2.00;;;10.30;1.00;;;;;;5071668;28;20017;-87
2021/05/26 05:00:51;;;;;;;3.17;1.75;;;10.00;1.00;;;;;;5072243;28;20021;-86
2021/05/26 05:03:16;;;;;;;5.90;2.63;;;10.10;1.00;;;;;;5074059;28;20029;-85
2021/05/26 05:05:42;;;;;;;3.90;1.80;;;10.20;1.00;;;;;;5071830;28;20017;-85
2021/05/26 05:08:09;;;;;;;3.60;2.00;;;10.20;1.00;;;;;;5073082;28;20485;-85
2021/05/26 05:10:35;;;;;;;2.97;1.70;;;10.30;1.00;;;;;;5072002;28;20035;-85
2021/05/26 05:13:01;;;;;;;5.55;2.10;;;10.40;1.00;;;;;;5070146;28;20486;-86
2021/05/26 05:15:26;;;;;;;4.85;2.15;;;10.60;1.00;;;;;;5073504;28;20024;-86
2021/05/26 05:17:52;;;;;;;3.05;1.80;;;10.70;1.00;;;;;;5071479;28;20480;-86
2021/05/26 05:20:20;;;;;;;4.00;2.30;;;10.40;1.00;;;;;;5072385;28;20090;-86
2021/05/26 05:22:53;;;;;;;2.55;1.98;;;10.50;1.00;;;;;;5068725;28;20111;-85
2021/05/26 05:25:20;;;;;;;4.00;2.40;;;10.60;1.00;;;;;;5084388;28;20024;-86
2021/05/26 05:27:46;;;;;;;4.22;2.30;;;10.70;1.00;;;;;;5070671;28;20301;-86
2021/05/26 05:30:12;;;;;;;3.17;1.77;;;10.70;1.00;;;;;;5071919;28;20051;-85
2021/05/26 05:32:38;;;;;;;5.57;2.40;;;10.90;1.00;;;;;;5070975;28;20040;-85
2021/05/26 05:35:05;;;;;;;7.75;3.03;;;10.90;1.00;;;;;;5071320;28;20507;-85
2021/05/26 05:37:30;;;;;;;4.40;2.22;;;11.00;1.00;;;;;;5071208;28;20064;-86
2021/05/26 05:39:56;;;;;;;3.58;2.50;;;11.00;1.00;;;;;;5071324;28;20057;-86
2021/05/26 05:42:22;;;;;;;5.82;2.60;;;11.10;1.00;;;;;;5072226;28;20074;-87
2021/05/26 05:44:48;;;;;;;6.03;2.70;;;11.70;1.00;;;;;;5073655;28;20090;-89
2021/05/26 05:47:14;;;;;;;11.30;3.30;;;11.10;1.00;;;;;;5072554;28;20020;-89
2021/05/26 05:49:40;;;;;;;8.40;2.90;;;11.10;1.00;;;;;;5088157;28;20028;-88
2021/05/26 05:52:09;;;;;;;6.25;2.63;;;11.20;1.00;;;;;;5074004;28;20578;-89
2021/05/26 05:54:35;;;;;;;4.35;2.72;;;11.20;1.00;;;;;;5071400;28;20025;-89
2021/05/26 05:57:01;;;;;;;7.32;2.72;;;11.50;1.00;;;;;;5069933;28;20505;-89
2021/05/26 05:59:26;;;;;;;6.35;3.10;;;11.70;1.00;;;;;;5070375;28;20029;-89
2021/05/26 06:01:52;;;;;;;7.50;3.72;;;11.50;1.00;;;;;;5070152;28;20109;-89
2021/05/26 06:04:18;;;;;;;9.75;3.85;;;12.00;1.00;;;;;;5071511;28;20048;-88
2021/05/26 06:06:43;;;;;;;10.13;4.22;;;11.60;1.00;;;;;;5070822;28;20028;-89
2021/05/26 06:09:09;;;;;;;10.52;4.43;;;11.70;1.00;;;;;;5073024;28;20485;-89
2021/05/26 06:11:34;;;;;;;9.52;4.45;;;11.80;1.00;;;;;;5070008;28;20493;-89
2021/05/26 06:14:05;;;;;;;9.93;5.53;;;12.00;1.00;;;;;;5070744;28;20082;-88
2021/05/26 06:16:37;;;;;;;10.95;4.90;;;12.10;1.00;;;;;;5070300;28;20089;-90
2021/05/26 06:19:03;;;;;;;8.10;4.70;;;12.20;1.00;;;;;;5071431;28;20047;-90
2021/05/26 06:21:30;;;;;;;9.55;4.82;;;12.40;1.00;;;;;;5072863;28;20025;-90
2021/05/26 06:23:56;;;;;;;6.88;4.05;;;12.30;1.00;;;;;;5070335;28;20025;-91
2021/05/26 06:26:22;;;;;;;6.78;3.88;;;12.40;1.00;;;;;;5070890;28;20028;-91
2021/05/26 06:28:47;;;;;;;7.25;3.67;;;12.50;1.00;;;;;;5071249;28;20024;-89
2021/05/26 06:31:14;;;;;;;6.57;3.05;;;12.80;1.00;;;;;;5069236;28;20068;-89
2021/05/26 06:33:42;;;;;;;5.45;3.03;;;12.50;1.00;;;;;;5072082;28;20028;-90
2021/05/26 06:36:10;;;;;;;5.35;3.35;;;12.60;1.00;;;;;;5071070;28;20074;-89
2021/05/26 06:38:36;;;;;;;5.30;3.55;;;12.60;1.00;;;;;;5071463;28;20039;-88
2021/05/26 06:41:02;;;;;;;5.75;3.90;;;12.60;1.00;;;;;;5071751;28;20024;-90
2021/05/26 06:43:28;;;;;;;5.55;3.90;;;12.70;1.00;;;;;;5066097;28;20029;-92
2021/05/26 06:45:54;;;;;;;6.32;4.13;;;12.60;1.00;;;;;;5069111;28;20489;-92
2021/05/26 06:48:19;;;;;;;6.10;3.67;;;12.70;1.00;;;;;;5072798;28;20039;-91
2021/05/26 06:50:45;;;;;;;12.52;4.40;;;12.70;1.00;;;;;;5071262;28;20023;-91
2021/05/26 06:53:11;;;;;;;6.70;4.53;;;12.70;1.00;;;;;;5070915;28;20028;-92
2021/05/26 06:55:36;;;;;;;6.88;3.90;;;12.90;1.00;;;;;;5070254;28;20020;-92
2021/05/26 06:58:02;;;;;;;8.43;4.20;;;12.80;1.00;;;;;;5070542;28;20032;-92
2021/05/26 07:00:29;;;;;;;8.38;4.30;;;12.80;1.00;;;;;;5073088;28;20020;-90
2021/05/26 07:02:55;;;;;;;5.82;4.32;;;12.90;1.00;;;;;;5072802;28;20082;-90
2021/05/26 07:05:21;;;;;;;7.53;4.22;;;13.10;1.00;;;;;;5070838;28;20021;-89
2021/05/26 07:07:46;;;;;;;5.88;3.85;;;13.20;1.00;;;;;;5070467;28;20029;-90
2021/05/26 07:10:12;;;;;;;8.30;3.90;;;13.20;1.00;;;;;;5068537;28;20085;-90
2021/05/26 07:12:38;;;;;;;5.75;3.55;;;13.20;1.00;;;;;;5069518;28;20021;-90
2021/05/26 07:15:04;;;;;;;4.57;3.40;;;13.30;1.00;;;;;;5071777;28;20028;-89
2021/05/26 07:17:30;;;;;;;5.25;3.90;;;13.30;1.00;;;;;;5071081;28;20043;-90
2021/05/26 07:19:56;;;;;;;4.25;3.33;;;13.40;1.00;;;;;;5069903;28;20021;-90
2021/05/26 07:22:21;;;;;;;5.18;3.00;;;13.40;1.00;;;;;;5068555;28;20028;-89
2021/05/26 07:24:47;;;;;;;4.38;3.28;;;13.50;1.00;;;;;;5069885;28;20116;-90
2021/05/26 07:27:13;;;;;;;10.75;3.13;;;13.60;1.00;;;;;;5072242;28;20037;-89
2021/05/26 07:29:38;;;;;;;6.00;2.60;;;13.80;1.00;;;;;;5070576;28;20480;-89
2021/05/26 07:32:04;;;;;;;5.35;2.72;;;13.70;1.00;;;;;;5070400;28;20052;-89
2021/05/26 07:34:30;;;;;;;4.18;2.70;;;13.90;1.00;;;;;;5070211;28;20023;-89
2021/05/26 07:36:56;;;;;;;4.10;2.63;;;14.30;1.00;;;;;;5069732;28;20041;-89
2021/05/26 07:39:23;;;;;;;4.10;2.20;;;14.70;1.00;;;;;;5071837;28;20028;-89
2021/05/26 07:41:49;;;;;;;5.47;2.10;;;14.50;1.00;;;;;;5070089;28;20028;-89
2021/05/26 07:44:15;;;;;;;6.20;2.58;;;14.50;1.00;;;;;;5070677;28;20074;-89
2021/05/26 07:46:40;;;;;;;5.30;1.98;;;15.10;1.00;;;;;;5070317;28;20024;-89
2021/05/26 07:49:06;;;;;;;6.65;2.33;;;14.90;1.00;;;;;;5068619;28;20051;-88
2021/05/26 07:51:33;;;;;;;7.28;2.15;;;15.00;1.00;;;;;;5070380;28;20478;-89
2021/05/26 07:54:01;;;;;;;4.93;1.98;;;15.00;99.90;;;;;;5070224;28;20487;-89
2021/05/26 07:56:28;;;;;;;6.10;2.13;;;15.10;99.90;;;;;;5069629;28;20447;-89
2021/05/26 07:58:54;;;;;;;4.43;1.95;;;15.10;99.90;;;;;;5070630;28;20028;-88
2021/05/26 08:01:20;;;;;;;6.28;1.98;;;15.30;99.90;;;;;;5070154;28;20021;-88
2021/05/26 08:03:45;;;;;;;5.47;1.92;;;15.30;1.00;;;;;;5069143;28;20025;-89
2021/05/26 08:06:12;;;;;;;7.10;1.98;;;15.30;1.00;;;;;;5069009;28;20029;-89
2021/05/26 08:08:38;;;;;;;4.40;2.85;;;15.40;1.00;;;;;;5070890;28;20124;-89
2021/05/26 08:11:05;;;;;;;4.90;1.92;;;15.50;1.00;;;;;;5069185;28;20489;-88
2021/05/26 08:13:31;;;;;;;6.70;1.88;;;15.50;99.90;;;;;;5072457;28;20374;-89
2021/05/26 08:15:56;;;;;;;3.58;1.85;;;15.70;99.90;;;;;;5072863;28;20025;-89
2021/05/26 08:18:22;;;;;;;5.25;1.85;;;15.90;99.90;;;;;;5074925;28;20032;-89
2021/05/26 08:20:48;;;;;;;4.50;1.70;;;16.10;99.90;;;;;;5072772;28;20020;-89
2021/05/26 08:23:17;;;;;;;5.65;1.60;;;15.90;99.90;;;;;;5072983;28;20044;-89
2021/05/26 08:25:43;;;;;;;5.45;1.70;;;15.90;99.90;;;;;;5073126;28;20044;-89
2021/05/26 08:28:09;;;;;;;5.72;2.03;;;16.00;99.90;;;;;;5073080;28;20491;-89
2021/05/26 08:30:35;;;;;;;6.38;1.95;;;16.10;99.90;;;;;;5073506;28;20020;-89
2021/05/26 08:33:01;;;;;;;4.95;2.10;;;16.40;99.90;;;;;;5070553;28;20456;-88
2021/05/26 08:35:27;;;;;;;4.72;2.10;;;16.40;99.90;;;;;;5071427;28;20064;-89
2021/05/26 08:37:53;;;;;;;5.32;1.85;;;16.40;99.90;;;;;;5072618;28;20404;-89
2021/05/26 08:40:19;;;;;;;5.53;1.80;;;16.30;99.90;;;;;;5073177;28;20042;-89
2021/05/26 08:42:45;;;;;;;6.97;1.90;;;16.40;99.90;;;;;;5072395;28;20024;-89
2021/05/26 08:45:12;;;;;;;4.45;1.90;;;16.40;99.90;;;;;;5074991;28;20036;-88
2021/05/26 08:47:41;;;;;;;5.88;2.10;;;16.70;99.90;;;;;;5071406;28;20485;-88
2021/05/26 08:50:08;;;;;;;8.02;2.10;;;16.70;99.90;;;;;;5072244;28;20150;-89
2021/05/26 08:52:33;;;;;;;4.95;1.90;;;16.60;99.90;;;;;;5071676;28;20066;-89
2021/05/26 08:55:00;;;;;;;5.72;2.25;;;16.80;99.90;;;;;;5070305;28;20123;-88
2021/05/26 08:57:26;;;;;;;6.47;2.22;;;16.80;99.90;;;;;;5073982;28;20109;-88
2021/05/26 08:59:51;;;;;;;6.97;2.13;;;16.80;99.90;;;;;;5073073;28;20477;-89
2021/05/26 09:02:17;;;;;;;5.22;1.80;;;16.80;99.90;;;;;;5071138;28;20119;-89
2021/05/26 09:04:42;;;;;;;6.53;2.00;;;16.70;99.90;;;;;;5071798;28;20105;-89
2021/05/26 09:07:11;;;;;;;3.88;1.60;;;16.90;99.90;;;;;;5072555;28;20024;-89
2021/05/26 09:10:00;;;;;;;6.93;2.35;;;17.10;99.90;;;;;;5071417;28;20054;-89
2021/05/26 09:12:34;;;;;;;5.88;2.05;;;17.20;99.90;;;;;;5070573;28;20025;-88
2021/05/26 09:15:05;;;;;;;5.95;2.10;;;17.10;99.90;;;;;;5072787;28;20021;-88
2021/05/26 09:17:32;;;;;;;5.03;1.95;;;17.20;99.90;;;;;;5071553;28;20047;-89
2021/05/26 09:20:22;;;;;;;6.40;2.00;;;17.50;99.90;;;;;;5071340;28;20032;-89
2021/05/26 09:23:10;;;;;;;4.32;1.75;;;17.70;99.90;;;;;;5072173;28;20028;-89
2021/05/26 09:25:57;;;;;;;4.15;1.73;;;17.60;99.90;;;;;;5069268;28;20031;-88
2021/05/26 09:28:34;;;;;;;5.45;1.92;;;17.80;99.90;;;;;;5071492;28;20071;-88
2021/05/26 09:31:09;;;;;;;4.45;1.85;;;17.90;99.90;;;;;;5056268;28;20029;-89
2021/05/26 09:33:40;;;;;;;8.02;2.42;;;17.90;99.90;;;;;;5072979;28;20025;-89
2021/05/26 09:36:19;;;;;;;3.45;1.55;;;17.90;99.90;;;;;;5073008;28;20043;-88
2021/05/26 09:38:59;;;;;;;6.03;1.73;;;18.30;99.90;;;;;;5071172;28;20036;-89
2021/05/26 09:41:30;;;;;;;5.00;2.00;;;18.30;99.90;;;;;;5070381;28;20060;-88
2021/05/26 09:43:58;;;;;;;6.78;2.15;;;18.40;99.90;;;;;;5071670;28;20054;-89
2021/05/26 09:46:31;;;;;;;6.00;1.70;;;18.30;99.90;;;;;;5069929;28;20056;-89
2021/05/26 09:49:09;;;;;;;7.93;2.25;;;18.20;99.90;;;;;;5053744;28;20063;-88
2021/05/26 09:51:43;;;;;;;6.63;2.13;;;18.40;99.90;;;;;;5069586;28;20054;-88
2021/05/26 09:54:18;;;;;;;5.22;2.25;;;18.30;99.90;;;;;;5071235;28;20021;-89
2021/05/26 09:56:46;;;;;;;6.38;2.00;;;18.20;99.90;;;;;;5071101;28;20077;-88
2021/05/26 09:59:13;;;;;;;6.88;2.05;;;18.40;99.90;;;;;;5071194;28;20028;-89
2021/05/26 10:01:40;;;;;;;4.75;1.75;;;18.40;99.90;;;;;;5070481;28;20024;-89
2021/05/26 10:04:07;;;;;;;7.45;2.00;;;18.20;99.90;;;;;;5069778;28;20444;-88
2021/05/26 10:06:34;;;;;;;4.93;2.15;;;18.40;99.90;;;;;;5072396;28;20028;-88
2021/05/26 10:09:01;;;;;;;4.55;2.25;;;18.60;99.90;;;;;;5071560;28;20074;-88
2021/05/26 10:11:29;;;;;;;7.20;2.33;;;18.80;99.90;;;;;;5070731;28;20025;-89
2021/05/26 10:13:55;;;;;;;5.75;2.00;;;18.80;99.90;;;;;;5070933;28;20032;-89
2021/05/26 10:16:22;;;;;;;4.80;1.80;;;18.90;99.90;;;;;;5070651;28;20036;-89
2021/05/26 10:18:49;;;;;;;3.65;1.67;;;19.00;99.90;;;;;;5070694;28;20028;-89
2021/05/26 10:21:16;;;;;;;5.43;1.67;;;19.00;99.90;;;;;;5072694;28;20032;-89
2021/05/26 10:23:43;;;;;;;4.70;1.80;;;18.90;99.90;;;;;;5070799;28;20113;-89
2021/05/26 10:26:09;;;;;;;3.55;1.80;;;18.60;99.90;;;;;;5070252;28;20489;-89
2021/05/26 10:28:35;;;;;;;4.28;1.75;;;18.70;99.90;;;;;;5067674;28;20098;-89
2021/05/26 10:31:02;;;;;;;4.13;2.05;;;18.90;99.90;;;;;;5069582;28;20028;-88
2021/05/26 10:33:43;;;;;;;7.50;1.80;;;18.80;99.90;;;;;;5072199;28;20029;-89
2021/05/26 10:36:10;;;;;;;4.57;1.80;;;18.70;99.90;;;;;;5069771;28;20477;-88
2021/05/26 10:38:57;;;;;;;5.13;1.45;;;18.90;99.90;;;;;;5070408;28;20030;-88
2021/05/26 10:41:23;;;;;;;4.07;1.50;;;18.90;99.90;;;;;;5069078;28;20119;-88
2021/05/26 10:43:57;;;;;;;4.07;1.60;;;18.80;99.90;;;;;;5069544;28;20159;-88
2021/05/26 10:46:41;;;;;;;5.13;1.60;;;18.70;99.90;;;;;;5069956;28;20093;-88
2021/05/26 10:49:11;;;;;;;5.68;1.63;;;18.80;99.90;;;;;;5056509;28;20012;-88
2021/05/26 10:51:57;;;;;;;6.03;1.92;;;19.10;99.90;;;;;;5070132;28;20032;-88
2021/05/26 10:54:41;;;;;;;5.80;2.05;;;19.70;99.90;;;;;;5068108;28;20016;-88
2021/05/26 10:57:08;;;;;;;5.55;1.40;;;19.90;99.90;;;;;;5068814;28;20085;-88
2021/05/26 10:59:34;;;;;;;5.32;1.70;;;20.10;99.90;;;;;;5069739;28;20044;-88
2021/05/26 11:02:03;;;;;;;4.25;1.42;;;20.10;99.90;;;;;;5069720;28;20024;-89
2021/05/26 11:04:29;;;;;;;4.32;1.30;;;20.50;99.90;;;;;;5068511;28;20048;-89
2021/05/26 11:07:18;;;;;;;3.00;1.40;;;20.50;99.90;;;;;;5053020;28;20073;-89
2021/05/26 11:09:54;;;;;;;3.15;1.30;;;20.40;99.90;;;;;;5052425;28;20048;-88
2021/05/26 11:12:19;;;;;;;3.58;1.10;;;20.20;99.90;;;;;;5071696;28;20094;-88
2021/05/26 11:14:48;;;;;;;4.22;1.58;;;20.10;99.90;;;;;;5069304;28;20496;-89
2021/05/26 11:17:15;;;;;;;2.60;1.15;;;20.00;99.90;;;;;;5069760;28;20060;-89
2021/05/26 11:19:40;;;;;;;3.75;1.20;;;20.00;99.90;;;;;;5069776;28;20110;-89
2021/05/26 11:22:11;;;;;;;2.13;1.00;;;20.20;99.90;;;;;;5069681;28;20543;-88
2021/05/26 11:24:39;;;;;;;1.98;0.80;;;20.50;99.90;;;;;;5071312;28;20025;-89
2021/05/26 11:27:20;;;;;;;1.88;1.10;;;20.70;99.90;;;;;;5067902;28;20029;-88
2021/05/26 11:29:49;;;;;;;2.72;1.25;;;20.40;99.90;;;;;;5069194;28;20036;-88
2021/05/26 11:32:18;;;;;;;3.35;1.20;;;21.00;99.90;;;;;;5069141;28;20056;-88
2021/05/26 11:34:46;;;;;;;2.55;1.20;;;21.10;99.90;;;;;;5069938;28;20489;-88
2021/05/26 11:37:27;;;;;;;2.65;1.20;;;21.10;99.90;;;;;;5069476;28;20043;-89
2021/05/26 11:39:53;;;;;;;4.00;1.67;;;21.20;99.90;;;;;;5070093;28;20104;-88
2021/05/26 11:42:22;;;;;;;2.05;1.10;;;21.70;99.90;;;;;;5070091;28;20172;-88
2021/05/26 11:45:05;;;;;;;4.95;1.70;;;21.80;99.90;;;;;;5067270;28;20393;-89
2021/05/26 11:47:39;;;;;;;3.33;1.60;;;22.20;99.90;;;;;;5067584;28;20432;-89
2021/05/26 11:50:16;;;;;;;3.45;1.52;;;22.30;99.90;;;;;;5073574;28;20040;-89
2021/05/26 11:53:16;;;;;;;5.43;1.52;;;22.70;99.90;;;;;;5073719;28;20111;-89
2021/05/26 11:55:47;;;;;;;4.30;1.55;;;23.00;99.90;;;;;;5074066;28;20111;-89
2021/05/26 11:58:13;;;;;;;3.55;1.65;;;23.70;99.90;;;;;;5072626;28;20044;-88
2021/05/26 12:00:39;;;;;;;7.13;1.52;;;24.50;99.90;;;;;;5073730;28;20025;-88
2021/05/26 12:03:10;;;;;;;3.58;1.55;;;25.80;99.90;;;;;;5074621;28;20025;-88
2021/05/26 12:05:48;;;;;;;2.72;1.25;;;26.70;99.90;;;;;;5073468;28;20040;-88
2021/05/26 12:08:23;;;;;;;4.85;1.63;;;27.70;99.90;;;;;;5071937;28;20115;-88
2021/05/26 12:11:00;;;;;;;4.05;1.15;;;27.30;99.90;;;;;;5073086;28;20173;-89
2021/05/26 12:13:27;;;;;;;3.35;1.30;;;28.00;99.90;;;;;;5072660;28;20062;-89
2021/05/26 12:15:56;;;;;;;2.63;1.20;;;29.20;99.90;;;;;;5073320;28;20047;-89
2021/05/26 12:18:22;;;;;;;2.58;1.33;;;28.90;99.90;;;;;;5074676;28;20032;-88
2021/05/26 12:20:50;;;;;;;3.72;1.52;;;28.60;99.90;;;;;;5072751;28;20436;-88
2021/05/26 12:23:35;;;;;;;4.68;1.58;;;29.00;99.90;;;;;;5071512;28;20033;-88
2021/05/26 12:26:20;;;;;;;3.60;1.40;;;29.00;99.90;;;;;;5070742;28;20028;-88
2021/05/26 12:28:45;;;;;;;4.05;1.20;;;28.80;99.90;;;;;;5072087;28;20024;-89
2021/05/26 12:31:15;;;;;;;2.05;1.25;;;28.50;99.90;;;;;;5072632;28;20055;-89
2021/05/26 12:33:45;;;;;;;2.35;1.30;;;27.30;99.90;;;;;;5073109;28;20043;-89
2021/05/26 12:36:11;;;;;;;2.80;1.25;;;27.80;99.90;;;;;;5072582;28;20036;-89
2021/05/26 12:38:42;;;;;;;3.40;1.35;;;27.90;99.90;;;;;;5072545;28;20443;-89
2021/05/26 12:41:34;;;;;;;3.03;1.30;;;28.20;99.90;;;;;;5072407;28;20565;-88
2021/05/26 12:44:09;;;;;;;2.15;1.02;;;28.60;99.90;;;;;;5072249;28;20032;-89
2021/05/26 12:46:35;;;;;;;2.95;1.27;;;29.30;99.90;;;;;;5072720;28;20077;-89
2021/05/26 12:49:02;;;;;;;2.70;1.10;;;29.00;99.90;;;;;;5073956;28;20041;-89
2021/05/26 12:51:28;;;;;;;3.45;1.70;;;29.50;99.90;;;;;;5074199;28;20065;-89
2021/05/26 12:53:57;;;;;;;2.20;1.10;;;29.50;99.90;;;;;;5071234;28;20123;-89
2021/05/26 12:56:23;;;;;;;1.85;1.00;;;29.80;99.90;;;;;;5072215;28;20037;-89